[Every last Monday of the month | 1730 - 2030z] Budapest <-> Nürnberg City Link

Zu Eventkalender hinzugefügt: 13 Daten

Samy Greve

874505
ATD - Prüfer
RG München - Event
RG München - NAV
RG München - Mentor
1nmF73g.png


Liebe Piloten,
jeden Montag finden Onlinetage in Budapest als auch in Nürnberg statt - wir wollen diese beide nun alle zum Ende des Monats miteinander verbinden und euch einen City Link anbieten.

Wir laden alle Piloten jeden letzten Montag des Monats auf die Rennstrecke zwischen Budapest <-> Nürnberg von 1730Z - 2030Z ein! An beiden Flughäfen, sowohl auch Enroute im Wiener Sektor erwartet euch ATC sodass von Ground bis Ground ATC garantiert ist.

Routenvorschläge:

LHBP-EDDN GILEP DCT ZOLKU DCT ARSIN DCT SUBEN T161 AKINI
EDDN-LHBP RODIS L604 LAMSI DCT ABLOM DCT ANEXA

Wir freuen uns mit euch die Rennstrecke zu füllen!
 
Zuletzt bearbeitet von einem Moderator:

Samy Greve

874505
ATD - Prüfer
RG München - Event
RG München - NAV
RG München - Mentor
Nuernberg_Budapest_Citylink.png


Hallo zusammen,

heute starten wir mit unserem monatlichen Citylink zwischen Budapest und Nürnberg! Beide Airports, sowie Enroute ATC wird zur Verfügung stehen, sodass ihr ab 1930 Lokal beide Strecken abfliegen könnt und komplette Abdeckung habt!

EDDN Charts

LHBP Charts

Routenvorschläge:

LHBP-EDDN GILEP DCT ZOLKU DCT ARSIN DCT SUBEN T161 AKINI
EDDN-LHBP RODIS L604 LAMSI DCT ABLOM DCT ANEXA

TAF EDDN
EDDN 280500Z 2806/2906 12007KT 9999 BKN045 TEMPO 2813/2816 4000 RASN BKN012 PROB40 TEMPO 2816/2820 1400 SN SCT002 BKN008
TAF LHBP
LHBP 280630Z 2806/2906 13010KT 9999 BKN015 TEMPO 2806/2811 2800 -DZ -RA BR BKN004 BECMG 2817/2820 15018G32KT BKN040 TEMPO 2822/2903 18015KT 4000 RA SHRA BKN012 BECMG 2903/2905 19014KT SCT015

Hier und dort weht eine "leichte Brise" oder ein bisschen Schnee kann auch fallen. Nutzt den letzten Montag des Jahres 2020 und führt euer Lieblingsflugzeug auf dieser Rennstrecke aus.

Wir freuen uns - bis heute Abend!
 
Zuletzt bearbeitet:

Samy Greve

874505
ATD - Prüfer
RG München - Event
RG München - NAV
RG München - Mentor
Nuernberg_Budapest_Citylink.png


Pünktlich zum Ende des Monats laden wir euch heute Abend wieder zum CityLink zwischen Budapest und Nürnberg ein! Die Strecke ist wieder komplett von Ground zu Ground mit ATC abgedeckt, sodass die Rennstrecke der perfekte Start ist für diese Woche!

Routenvorschläge:

LHBP-EDDN GILEP DCT ZOLKU DCT ARSIN DCT SUBEN T161 AKINI
EDDN-LHBP RODIS L604 LAMSI DCT ABLOM DCT ANEXA

TAF EDDN:
EDDN 250500Z 2506/2606 14005KT 9999 SCT012 BKN020 TEMPO 2507/2520 4000 -SN BKN012 BECMG 2510/2513 28005KT PROB40 TEMPO 2520/2601 2500 -SN BKN007 BECMG 2604/2606 25010KT 3000 -SN BKN007

TAF LHBP:
LHBP 250515Z 2506/2606 31015KT CAVOK TEMPO 2506/2515 BKN015 BECMG 2516/2518 31006KT

Wir freuen uns - bis heute Abend!
 

Samy Greve

874505
ATD - Prüfer
RG München - Event
RG München - NAV
RG München - Mentor
Nuernberg_Budapest_Citylink.png


Der Februar neigt sich doch schneller zum Ende wie gedacht. Sei es drum, das bedeutet auch dass wir heute Abend wieder zwischen Nürnberg und Budapest shuttlen. Ab 1930 Local sind beide Airports sowie Enroute alles gestaffed für euch, sodass ihr durchgehend ATC erwarten könnt!

Routenvorschläge:

LHBP-EDDN GILEP DCT ZOLKU DCT ARSIN DCT SUBEN T161 AKINI
EDDN-LHBP RODIS L604 LAMSI DCT ABLOM DCT ANEXA

Das Wetter sieht endlich mal wieder gut aus - Grund genug zum Fliegen. Wir freuen uns! Bis heute Abend!

EDDN 220500Z 2206/2306 12007KT 9999 OVC006 PROB30 TEMPO 2206/2209 BKN004 BECMG 2210/2213 CAVOK
LHBP 220515Z 2206/2306 08006KT 6000 NSC PROB30 TEMPO 2206/2209 1200 BCFG BR OVC002 BECMG 2209/2212 13009KT CAVOK BECMG 2217/2220 VRB03KT 4000 BR SCT006 TEMPO 2220/2306 0800 FG OVC002
 

Samy Greve

874505
ATD - Prüfer
RG München - Event
RG München - NAV
RG München - Mentor
1nmF73g.png


Zum Ende des Aprils laden wir euch heute Abend wieder herzlich zur Rennstrecke zwischen Budapest <-> Nürnberg ein. Ab 1930 Lokal ist die Strecke wieder für mindestens 3 Stunden mit kompletter ATC Abdeckung für euch bereit und freut sich auf eure Flüge!

LHBP-EDDN GILEP DCT ZOLKU DCT ARSIN DCT SUBEN T161 AKINI
EDDN-LHBP RODIS L604 LAMSI DCT MAREG DCT ANEXA
 
Zuletzt bearbeitet:

Maik Spaeth

1452697
RG München - Event
1nmF73g.png

Zum letzten Montag im Mai laden wir euch herzlich zu unserem EDDN - LHBP Shuttle ein.
Ab 1930 local ist für volle 3 Stunden komplette ATC Abdeckung geboten.

Route:
LHBP-EDDN GILEP DCT ZOLKU DCT ARSIN DCT SUBEN T161 AKINI
EDDN-LHBP RODIS L604 LAMSI DCT MAREG DCT ANEXA

Wir freuen uns auf euch! Bis heute Abend
 
Zuletzt bearbeitet:
Oben